sensor_id;sensor_type;location;lat;lon;timestamp;temperature;humidity
4813;DHT22;2420;51.202;8.698;2023-12-28T00:00:26;4.20;1.00
4813;DHT22;2420;51.202;8.698;2023-12-28T00:02:52;4.00;1.00
4813;DHT22;2420;51.202;8.698;2023-12-28T00:05:17;4.30;1.00
4813;DHT22;2420;51.202;8.698;2023-12-28T00:07:43;4.30;1.00
4813;DHT22;2420;51.202;8.698;2023-12-28T00:10:09;4.30;1.00
4813;DHT22;2420;51.202;8.698;2023-12-28T00:12:34;4.20;1.00
4813;DHT22;2420;51.202;8.698;2023-12-28T00:15:00;4.20;1.00
4813;DHT22;2420;51.202;8.698;2023-12-28T00:17:26;4.30;1.00
4813;DHT22;2420;51.202;8.698;2023-12-28T00:19:51;4.30;1.00
4813;DHT22;2420;51.202;8.698;2023-12-28T00:22:17;4.40;1.00
4813;DHT22;2420;51.202;8.698;2023-12-28T00:24:42;4.20;1.00
4813;DHT22;2420;51.202;8.698;2023-12-28T00:27:08;4.50;1.00
4813;DHT22;2420;51.202;8.698;2023-12-28T00:29:33;4.40;1.00
4813;DHT22;2420;51.202;8.698;2023-12-28T00:31:59;4.30;1.00
4813;DHT22;2420;51.202;8.698;2023-12-28T00:34:25;4.30;1.00
4813;DHT22;2420;51.202;8.698;2023-12-28T00:36:51;4.40;1.00
4813;DHT22;2420;51.202;8.698;2023-12-28T00:39:16;4.40;1.00
4813;DHT22;2420;51.202;8.698;2023-12-28T00:41:42;4.50;1.00
4813;DHT22;2420;51.202;8.698;2023-12-28T00:44:07;4.70;1.00
4813;DHT22;2420;51.202;8.698;2023-12-28T00:46:35;4.50;1.00
4813;DHT22;2420;51.202;8.698;2023-12-28T00:49:01;4.50;1.00
4813;DHT22;2420;51.202;8.698;2023-12-28T00:51:26;4.80;1.00
4813;DHT22;2420;51.202;8.698;2023-12-28T00:53:52;4.70;1.00
4813;DHT22;2420;51.202;8.698;2023-12-28T00:56:17;4.80;1.00
4813;DHT22;2420;51.202;8.698;2023-12-28T00:58:43;4.50;1.00
4813;DHT22;2420;51.202;8.698;2023-12-28T01:01:09;4.70;1.00
4813;DHT22;2420;51.202;8.698;2023-12-28T01:03:35;4.80;1.00
4813;DHT22;2420;51.202;8.698;2023-12-28T01:06:01;4.60;1.00
4813;DHT22;2420;51.202;8.698;2023-12-28T01:08:27;4.60;1.00
4813;DHT22;2420;51.202;8.698;2023-12-28T01:10:52;4.80;1.00
4813;DHT22;2420;51.202;8.698;2023-12-28T01:13:18;4.80;1.00
4813;DHT22;2420;51.202;8.698;2023-12-28T01:15:44;4.70;1.00
4813;DHT22;2420;51.202;8.698;2023-12-28T01:18:09;4.70;1.00
4813;DHT22;2420;51.202;8.698;2023-12-28T01:20:35;4.60;1.00
4813;DHT22;2420;51.202;8.698;2023-12-28T01:23:01;4.80;1.00
4813;DHT22;2420;51.202;8.698;2023-12-28T01:25:27;4.70;1.00
4813;DHT22;2420;51.202;8.698;2023-12-28T01:27:53;4.80;1.00
4813;DHT22;2420;51.202;8.698;2023-12-28T01:30:18;4.60;1.00
4813;DHT22;2420;51.202;8.698;2023-12-28T01:32:44;4.70;1.00
4813;DHT22;2420;51.202;8.698;2023-12-28T01:35:09;4.70;1.00
4813;DHT22;2420;51.202;8.698;2023-12-28T01:37:35;4.80;1.00
4813;DHT22;2420;51.202;8.698;2023-12-28T01:40:01;4.70;1.00
4813;DHT22;2420;51.202;8.698;2023-12-28T01:42:27;4.70;1.00
4813;DHT22;2420;51.202;8.698;2023-12-28T01:44:55;4.80;1.00
4813;DHT22;2420;51.202;8.698;2023-12-28T01:47:21;4.80;1.00
4813;DHT22;2420;51.202;8.698;2023-12-28T01:49:47;4.90;1.00
4813;DHT22;2420;51.202;8.698;2023-12-28T01:52:12;4.80;1.00
4813;DHT22;2420;51.202;8.698;2023-12-28T01:54:38;5.00;1.00
4813;DHT22;2420;51.202;8.698;2023-12-28T01:57:04;5.00;1.00
4813;DHT22;2420;51.202;8.698;2023-12-28T01:59:31;5.10;1.00
4813;DHT22;2420;51.202;8.698;2023-12-28T02:01:57;4.80;1.00
4813;DHT22;2420;51.202;8.698;2023-12-28T02:04:23;5.00;1.00
4813;DHT22;2420;51.202;8.698;2023-12-28T02:06:57;5.20;1.00
4813;DHT22;2420;51.202;8.698;2023-12-28T02:09:24;5.10;1.00
4813;DHT22;2420;51.202;8.698;2023-12-28T02:11:49;5.00;1.00
4813;DHT22;2420;51.202;8.698;2023-12-28T02:14:15;5.10;1.00
4813;DHT22;2420;51.202;8.698;2023-12-28T02:16:46;5.30;1.00
4813;DHT22;2420;51.202;8.698;2023-12-28T02:19:32;5.20;1.00
4813;DHT22;2420;51.202;8.698;2023-12-28T02:21:59;5.10;1.00
4813;DHT22;2420;51.202;8.698;2023-12-28T02:24:25;5.20;1.00
4813;DHT22;2420;51.202;8.698;2023-12-28T02:26:50;5.50;1.00
4813;DHT22;2420;51.202;8.698;2023-12-28T02:29:16;5.30;1.00
4813;DHT22;2420;51.202;8.698;2023-12-28T02:32:00;5.60;1.00
4813;DHT22;2420;51.202;8.698;2023-12-28T02:34:30;5.60;1.00
4813;DHT22;2420;51.202;8.698;2023-12-28T02:36:59;5.60;1.00
4813;DHT22;2420;51.202;8.698;2023-12-28T02:39:27;5.80;1.00
4813;DHT22;2420;51.202;8.698;2023-12-28T02:41:54;5.90;1.00
4813;DHT22;2420;51.202;8.698;2023-12-28T02:44:20;5.90;1.00
4813;DHT22;2420;51.202;8.698;2023-12-28T02:46:46;6.00;1.00
4813;DHT22;2420;51.202;8.698;2023-12-28T02:49:12;6.20;1.00
4813;DHT22;2420;51.202;8.698;2023-12-28T02:51:38;6.10;1.00
4813;DHT22;2420;51.202;8.698;2023-12-28T02:54:04;6.20;1.00
4813;DHT22;2420;51.202;8.698;2023-12-28T02:56:29;6.30;1.00
4813;DHT22;2420;51.202;8.698;2023-12-28T02:58:55;6.20;1.00
4813;DHT22;2420;51.202;8.698;2023-12-28T03:01:20;6.30;1.00
4813;DHT22;2420;51.202;8.698;2023-12-28T03:03:46;6.20;1.00
4813;DHT22;2420;51.202;8.698;2023-12-28T03:06:11;6.20;1.00
4813;DHT22;2420;51.202;8.698;2023-12-28T03:08:37;6.30;1.00
4813;DHT22;2420;51.202;8.698;2023-12-28T03:11:02;6.10;1.00
4813;DHT22;2420;51.202;8.698;2023-12-28T03:13:28;6.40;1.00
4813;DHT22;2420;51.202;8.698;2023-12-28T03:15:54;6.30;1.00
4813;DHT22;2420;51.202;8.698;2023-12-28T03:18:19;6.30;1.00
4813;DHT22;2420;51.202;8.698;2023-12-28T03:20:45;6.30;1.00
4813;DHT22;2420;51.202;8.698;2023-12-28T03:23:11;6.40;1.00
4813;DHT22;2420;51.202;8.698;2023-12-28T03:25:38;6.20;1.00
4813;DHT22;2420;51.202;8.698;2023-12-28T03:28:03;6.40;1.00
4813;DHT22;2420;51.202;8.698;2023-12-28T03:30:29;6.00;1.00
4813;DHT22;2420;51.202;8.698;2023-12-28T03:32:55;6.40;1.00
4813;DHT22;2420;51.202;8.698;2023-12-28T03:35:20;6.50;1.00
4813;DHT22;2420;51.202;8.698;2023-12-28T03:37:46;6.00;1.00
4813;DHT22;2420;51.202;8.698;2023-12-28T03:40:12;6.20;1.00
4813;DHT22;2420;51.202;8.698;2023-12-28T03:42:37;6.50;1.00
4813;DHT22;2420;51.202;8.698;2023-12-28T03:45:04;6.50;1.00
4813;DHT22;2420;51.202;8.698;2023-12-28T03:47:30;6.40;1.00
4813;DHT22;2420;51.202;8.698;2023-12-28T03:49:55;6.40;1.00
4813;DHT22;2420;51.202;8.698;2023-12-28T03:52:22;6.20;1.00
4813;DHT22;2420;51.202;8.698;2023-12-28T03:54:48;6.70;1.00
4813;DHT22;2420;51.202;8.698;2023-12-28T03:57:14;6.60;1.00
4813;DHT22;2420;51.202;8.698;2023-12-28T03:59:40;6.40;1.00
4813;DHT22;2420;51.202;8.698;2023-12-28T04:02:06;6.50;1.00
4813;DHT22;2420;51.202;8.698;2023-12-28T04:04:31;6.40;1.00
4813;DHT22;2420;51.202;8.698;2023-12-28T04:06:57;6.30;1.00
4813;DHT22;2420;51.202;8.698;2023-12-28T04:09:22;6.50;1.00
4813;DHT22;2420;51.202;8.698;2023-12-28T04:11:48;6.50;1.00
4813;DHT22;2420;51.202;8.698;2023-12-28T04:14:14;6.50;1.00
4813;DHT22;2420;51.202;8.698;2023-12-28T04:16:39;6.20;1.00
4813;DHT22;2420;51.202;8.698;2023-12-28T04:19:05;6.50;1.00
4813;DHT22;2420;51.202;8.698;2023-12-28T04:21:30;6.60;1.00
4813;DHT22;2420;51.202;8.698;2023-12-28T04:23:56;6.50;1.00
4813;DHT22;2420;51.202;8.698;2023-12-28T04:26:22;6.40;1.00
4813;DHT22;2420;51.202;8.698;2023-12-28T04:28:47;6.40;1.00
4813;DHT22;2420;51.202;8.698;2023-12-28T04:31:13;6.50;1.00
4813;DHT22;2420;51.202;8.698;2023-12-28T04:33:39;6.70;1.00
4813;DHT22;2420;51.202;8.698;2023-12-28T04:36:05;6.60;1.00
4813;DHT22;2420;51.202;8.698;2023-12-28T04:38:33;6.70;1.00
4813;DHT22;2420;51.202;8.698;2023-12-28T04:40:59;6.80;1.00
4813;DHT22;2420;51.202;8.698;2023-12-28T04:43:25;6.80;1.00
4813;DHT22;2420;51.202;8.698;2023-12-28T04:45:51;6.70;1.00
4813;DHT22;2420;51.202;8.698;2023-12-28T04:48:17;6.60;1.00
4813;DHT22;2420;51.202;8.698;2023-12-28T04:50:47;6.30;1.00
4813;DHT22;2420;51.202;8.698;2023-12-28T04:53:13;6.60;1.00
4813;DHT22;2420;51.202;8.698;2023-12-28T04:55:38;6.60;1.00
4813;DHT22;2420;51.202;8.698;2023-12-28T04:58:04;6.70;1.00
4813;DHT22;2420;51.202;8.698;2023-12-28T05:00:30;6.70;1.00
4813;DHT22;2420;51.202;8.698;2023-12-28T05:02:55;6.70;1.00
4813;DHT22;2420;51.202;8.698;2023-12-28T05:05:21;6.80;1.00
4813;DHT22;2420;51.202;8.698;2023-12-28T05:07:46;6.70;1.00
4813;DHT22;2420;51.202;8.698;2023-12-28T05:10:12;6.70;1.00
4813;DHT22;2420;51.202;8.698;2023-12-28T05:12:37;6.80;1.00
4813;DHT22;2420;51.202;8.698;2023-12-28T05:15:03;6.80;1.00
4813;DHT22;2420;51.202;8.698;2023-12-28T05:17:29;6.80;1.00
4813;DHT22;2420;51.202;8.698;2023-12-28T05:19:54;6.80;1.00
4813;DHT22;2420;51.202;8.698;2023-12-28T05:22:21;6.90;1.00
4813;DHT22;2420;51.202;8.698;2023-12-28T05:24:47;6.80;1.00
4813;DHT22;2420;51.202;8.698;2023-12-28T05:27:12;6.80;1.00
4813;DHT22;2420;51.202;8.698;2023-12-28T05:29:38;6.80;1.00
4813;DHT22;2420;51.202;8.698;2023-12-28T05:32:04;6.80;1.00
4813;DHT22;2420;51.202;8.698;2023-12-28T05:34:30;6.60;1.00
4813;DHT22;2420;51.202;8.698;2023-12-28T05:36:56;6.70;1.00
4813;DHT22;2420;51.202;8.698;2023-12-28T05:39:21;6.40;1.00
4813;DHT22;2420;51.202;8.698;2023-12-28T05:41:47;6.80;1.00
4813;DHT22;2420;51.202;8.698;2023-12-28T05:44:13;6.90;1.00
4813;DHT22;2420;51.202;8.698;2023-12-28T05:46:39;6.90;1.00
4813;DHT22;2420;51.202;8.698;2023-12-28T05:49:05;6.90;1.00
4813;DHT22;2420;51.202;8.698;2023-12-28T05:51:40;6.90;1.00
4813;DHT22;2420;51.202;8.698;2023-12-28T05:54:06;6.90;1.00
4813;DHT22;2420;51.202;8.698;2023-12-28T05:56:32;6.90;1.00
4813;DHT22;2420;51.202;8.698;2023-12-28T05:58:57;6.90;1.00
4813;DHT22;2420;51.202;8.698;2023-12-28T06:01:24;6.90;1.00
4813;DHT22;2420;51.202;8.698;2023-12-28T06:03:49;6.90;1.00
4813;DHT22;2420;51.202;8.698;2023-12-28T06:06:15;6.90;1.00
4813;DHT22;2420;51.202;8.698;2023-12-28T06:08:42;6.90;1.00
4813;DHT22;2420;51.202;8.698;2023-12-28T06:11:07;6.80;1.00
4813;DHT22;2420;51.202;8.698;2023-12-28T06:13:33;6.80;1.00
4813;DHT22;2420;51.202;8.698;2023-12-28T06:15:58;6.80;1.00
4813;DHT22;2420;51.202;8.698;2023-12-28T06:18:24;6.50;1.00
4813;DHT22;2420;51.202;8.698;2023-12-28T06:20:49;6.80;1.00
4813;DHT22;2420;51.202;8.698;2023-12-28T06:23:15;6.90;1.00
4813;DHT22;2420;51.202;8.698;2023-12-28T06:25:40;6.80;1.00
4813;DHT22;2420;51.202;8.698;2023-12-28T06:28:06;6.80;1.00
4813;DHT22;2420;51.202;8.698;2023-12-28T06:30:31;6.80;1.00
4813;DHT22;2420;51.202;8.698;2023-12-28T06:32:57;6.80;1.00
4813;DHT22;2420;51.202;8.698;2023-12-28T06:35:23;6.80;1.00
4813;DHT22;2420;51.202;8.698;2023-12-28T06:37:48;6.90;1.00
4813;DHT22;2420;51.202;8.698;2023-12-28T06:40:14;7.00;1.00
4813;DHT22;2420;51.202;8.698;2023-12-28T06:42:40;7.00;1.00
4813;DHT22;2420;51.202;8.698;2023-12-28T06:45:09;6.40;1.00
4813;DHT22;2420;51.202;8.698;2023-12-28T06:47:34;6.80;1.00
4813;DHT22;2420;51.202;8.698;2023-12-28T06:50:00;6.80;1.00
4813;DHT22;2420;51.202;8.698;2023-12-28T06:52:25;7.00;1.00
4813;DHT22;2420;51.202;8.698;2023-12-28T06:54:51;6.70;1.00
4813;DHT22;2420;51.202;8.698;2023-12-28T06:57:18;6.70;1.00
4813;DHT22;2420;51.202;8.698;2023-12-28T06:59:44;6.80;1.00
4813;DHT22;2420;51.202;8.698;2023-12-28T07:02:09;6.70;1.00
4813;DHT22;2420;51.202;8.698;2023-12-28T07:04:35;6.80;1.00
4813;DHT22;2420;51.202;8.698;2023-12-28T07:07:03;6.80;1.00
4813;DHT22;2420;51.202;8.698;2023-12-28T07:09:28;6.80;1.00
4813;DHT22;2420;51.202;8.698;2023-12-28T07:11:54;6.70;1.00
4813;DHT22;2420;51.202;8.698;2023-12-28T07:14:19;6.80;1.00
4813;DHT22;2420;51.202;8.698;2023-12-28T07:16:45;6.80;1.00
4813;DHT22;2420;51.202;8.698;2023-12-28T07:19:11;6.80;1.00
4813;DHT22;2420;51.202;8.698;2023-12-28T07:21:36;6.50;1.00
4813;DHT22;2420;51.202;8.698;2023-12-28T07:24:02;6.90;1.00
4813;DHT22;2420;51.202;8.698;2023-12-28T07:26:27;6.90;1.00
4813;DHT22;2420;51.202;8.698;2023-12-28T07:28:53;6.90;1.00
4813;DHT22;2420;51.202;8.698;2023-12-28T07:31:24;6.90;1.00
4813;DHT22;2420;51.202;8.698;2023-12-28T07:33:50;6.50;1.00
4813;DHT22;2420;51.202;8.698;2023-12-28T07:36:16;6.90;1.00
4813;DHT22;2420;51.202;8.698;2023-12-28T07:38:41;6.90;1.00
4813;DHT22;2420;51.202;8.698;2023-12-28T07:41:07;6.60;1.00
4813;DHT22;2420;51.202;8.698;2023-12-28T07:43:32;6.90;1.00
4813;DHT22;2420;51.202;8.698;2023-12-28T07:45:58;6.90;1.00
4813;DHT22;2420;51.202;8.698;2023-12-28T07:48:23;6.90;1.00
4813;DHT22;2420;51.202;8.698;2023-12-28T07:50:49;6.90;1.00
4813;DHT22;2420;51.202;8.698;2023-12-28T07:53:17;7.00;1.00
4813;DHT22;2420;51.202;8.698;2023-12-28T07:55:42;7.00;1.00
4813;DHT22;2420;51.202;8.698;2023-12-28T07:58:08;7.00;1.00
4813;DHT22;2420;51.202;8.698;2023-12-28T08:00:33;7.00;1.00
4813;DHT22;2420;51.202;8.698;2023-12-28T08:02:59;7.00;1.00
4813;DHT22;2420;51.202;8.698;2023-12-28T08:05:24;7.00;1.00
4813;DHT22;2420;51.202;8.698;2023-12-28T08:07:50;7.10;1.00
4813;DHT22;2420;51.202;8.698;2023-12-28T08:10:15;7.10;1.00
4813;DHT22;2420;51.202;8.698;2023-12-28T08:12:41;7.10;1.00
4813;DHT22;2420;51.202;8.698;2023-12-28T08:15:08;7.00;1.00
4813;DHT22;2420;51.202;8.698;2023-12-28T08:17:34;7.00;1.00
4813;DHT22;2420;51.202;8.698;2023-12-28T08:19:59;7.00;1.00
4813;DHT22;2420;51.202;8.698;2023-12-28T08:22:25;7.00;1.00
4813;DHT22;2420;51.202;8.698;2023-12-28T08:24:51;7.00;1.00
4813;DHT22;2420;51.202;8.698;2023-12-28T08:27:16;7.00;1.00
4813;DHT22;2420;51.202;8.698;2023-12-28T08:29:42;7.00;1.00
4813;DHT22;2420;51.202;8.698;2023-12-28T08:32:07;7.00;1.00
4813;DHT22;2420;51.202;8.698;2023-12-28T08:34:33;7.00;1.00
4813;DHT22;2420;51.202;8.698;2023-12-28T08:36:59;7.00;1.00
4813;DHT22;2420;51.202;8.698;2023-12-28T08:39:24;7.10;1.00
4813;DHT22;2420;51.202;8.698;2023-12-28T08:41:50;7.00;1.00
4813;DHT22;2420;51.202;8.698;2023-12-28T08:44:15;7.00;1.00
4813;DHT22;2420;51.202;8.698;2023-12-28T08:46:41;7.10;1.00
4813;DHT22;2420;51.202;8.698;2023-12-28T08:49:06;7.00;1.00
4813;DHT22;2420;51.202;8.698;2023-12-28T08:51:32;7.10;1.00
4813;DHT22;2420;51.202;8.698;2023-12-28T08:53:57;7.10;1.00
4813;DHT22;2420;51.202;8.698;2023-12-28T08:56:23;6.90;1.00
4813;DHT22;2420;51.202;8.698;2023-12-28T08:58:49;7.20;1.00
4813;DHT22;2420;51.202;8.698;2023-12-28T09:01:20;7.10;1.00
4813;DHT22;2420;51.202;8.698;2023-12-28T09:03:52;6.80;1.00
4813;DHT22;2420;51.202;8.698;2023-12-28T09:06:19;7.20;1.00
4813;DHT22;2420;51.202;8.698;2023-12-28T09:08:46;7.20;1.00
4813;DHT22;2420;51.202;8.698;2023-12-28T09:11:13;7.20;1.00
4813;DHT22;2420;51.202;8.698;2023-12-28T09:13:39;7.30;1.00
4813;DHT22;2420;51.202;8.698;2023-12-28T09:16:07;7.40;1.00
4813;DHT22;2420;51.202;8.698;2023-12-28T09:18:33;7.30;1.00
4813;DHT22;2420;51.202;8.698;2023-12-28T09:20:59;7.40;1.00
4813;DHT22;2420;51.202;8.698;2023-12-28T09:23:24;7.40;1.00
4813;DHT22;2420;51.202;8.698;2023-12-28T09:25:50;7.30;1.00
4813;DHT22;2420;51.202;8.698;2023-12-28T09:28:15;7.40;1.00
4813;DHT22;2420;51.202;8.698;2023-12-28T09:30:41;7.40;1.00
4813;DHT22;2420;51.202;8.698;2023-12-28T09:33:06;7.40;1.00
4813;DHT22;2420;51.202;8.698;2023-12-28T09:35:32;7.50;1.00
4813;DHT22;2420;51.202;8.698;2023-12-28T09:37:58;7.60;1.00
4813;DHT22;2420;51.202;8.698;2023-12-28T09:40:24;7.60;1.00
4813;DHT22;2420;51.202;8.698;2023-12-28T09:43:40;7.60;1.00
4813;DHT22;2420;51.202;8.698;2023-12-28T09:45:39;7.60;1.00
4813;DHT22;2420;51.202;8.698;2023-12-28T09:48:05;7.60;1.00
4813;DHT22;2420;51.202;8.698;2023-12-28T09:50:32;7.60;1.00
4813;DHT22;2420;51.202;8.698;2023-12-28T09:52:58;7.60;1.00
4813;DHT22;2420;51.202;8.698;2023-12-28T09:55:24;7.60;1.00
4813;DHT22;2420;51.202;8.698;2023-12-28T09:57:52;7.70;1.00
4813;DHT22;2420;51.202;8.698;2023-12-28T10:00:19;7.70;1.00
4813;DHT22;2420;51.202;8.698;2023-12-28T10:02:45;7.70;1.00
4813;DHT22;2420;51.202;8.698;2023-12-28T10:05:14;7.70;1.00
4813;DHT22;2420;51.202;8.698;2023-12-28T10:07:42;7.70;1.00
4813;DHT22;2420;51.202;8.698;2023-12-28T10:10:08;7.70;1.00
4813;DHT22;2420;51.202;8.698;2023-12-28T10:12:34;7.70;1.00
4813;DHT22;2420;51.202;8.698;2023-12-28T10:15:00;7.70;1.00
4813;DHT22;2420;51.202;8.698;2023-12-28T10:17:25;7.80;1.00
4813;DHT22;2420;51.202;8.698;2023-12-28T10:19:53;7.80;1.00
4813;DHT22;2420;51.202;8.698;2023-12-28T10:22:19;7.80;1.00
4813;DHT22;2420;51.202;8.698;2023-12-28T10:24:45;7.90;1.00
4813;DHT22;2420;51.202;8.698;2023-12-28T10:27:15;7.80;1.00
4813;DHT22;2420;51.202;8.698;2023-12-28T10:29:40;7.90;1.00
4813;DHT22;2420;51.202;8.698;2023-12-28T10:32:07;7.90;1.00
4813;DHT22;2420;51.202;8.698;2023-12-28T10:34:33;7.90;1.00
4813;DHT22;2420;51.202;8.698;2023-12-28T10:36:59;7.90;1.00
4813;DHT22;2420;51.202;8.698;2023-12-28T10:39:25;8.00;1.00
4813;DHT22;2420;51.202;8.698;2023-12-28T10:41:54;8.00;1.00
4813;DHT22;2420;51.202;8.698;2023-12-28T10:44:23;8.00;1.00
4813;DHT22;2420;51.202;8.698;2023-12-28T10:46:55;8.00;1.00
4813;DHT22;2420;51.202;8.698;2023-12-28T10:49:25;8.00;1.00
4813;DHT22;2420;51.202;8.698;2023-12-28T10:51:51;8.00;1.00
4813;DHT22;2420;51.202;8.698;2023-12-28T10:54:31;8.00;1.00
4813;DHT22;2420;51.202;8.698;2023-12-28T10:57:06;8.00;1.00
4813;DHT22;2420;51.202;8.698;2023-12-28T10:59:44;8.00;1.00
4813;DHT22;2420;51.202;8.698;2023-12-28T11:02:14;8.10;1.00
4813;DHT22;2420;51.202;8.698;2023-12-28T11:04:47;8.10;1.00
4813;DHT22;2420;51.202;8.698;2023-12-28T11:07:15;8.10;1.00
4813;DHT22;2420;51.202;8.698;2023-12-28T11:09:42;8.10;1.00
4813;DHT22;2420;51.202;8.698;2023-12-28T11:12:09;8.20;1.00
4813;DHT22;2420;51.202;8.698;2023-12-28T11:14:42;8.20;1.00
4813;DHT22;2420;51.202;8.698;2023-12-28T11:17:09;8.20;1.00
4813;DHT22;2420;51.202;8.698;2023-12-28T11:19:35;8.20;1.00
4813;DHT22;2420;51.202;8.698;2023-12-28T11:22:03;8.30;1.00
4813;DHT22;2420;51.202;8.698;2023-12-28T11:24:29;8.30;1.00
4813;DHT22;2420;51.202;8.698;2023-12-28T11:26:56;8.30;1.00
4813;DHT22;2420;51.202;8.698;2023-12-28T11:29:22;8.40;1.00
4813;DHT22;2420;51.202;8.698;2023-12-28T11:31:57;8.40;1.00
4813;DHT22;2420;51.202;8.698;2023-12-28T11:34:29;8.40;1.00
4813;DHT22;2420;51.202;8.698;2023-12-28T11:36:56;8.30;1.00
4813;DHT22;2420;51.202;8.698;2023-12-28T11:39:32;8.40;1.00
4813;DHT22;2420;51.202;8.698;2023-12-28T11:42:03;8.40;1.00
4813;DHT22;2420;51.202;8.698;2023-12-28T11:44:30;8.40;1.00
4813;DHT22;2420;51.202;8.698;2023-12-28T11:46:56;8.40;1.00
4813;DHT22;2420;51.202;8.698;2023-12-28T11:49:28;8.50;1.00
4813;DHT22;2420;51.202;8.698;2023-12-28T11:51:57;8.50;1.00
4813;DHT22;2420;51.202;8.698;2023-12-28T11:54:26;8.60;1.00
4813;DHT22;2420;51.202;8.698;2023-12-28T11:56:52;8.60;1.00
4813;DHT22;2420;51.202;8.698;2023-12-28T11:59:19;8.60;1.00
4813;DHT22;2420;51.202;8.698;2023-12-28T12:01:52;8.60;1.00
4813;DHT22;2420;51.202;8.698;2023-12-28T12:04:19;8.60;1.00
4813;DHT22;2420;51.202;8.698;2023-12-28T12:06:45;8.70;1.00
4813;DHT22;2420;51.202;8.698;2023-12-28T12:09:15;8.70;1.00
4813;DHT22;2420;51.202;8.698;2023-12-28T12:11:41;8.70;1.00
4813;DHT22;2420;51.202;8.698;2023-12-28T12:14:10;8.80;1.00
4813;DHT22;2420;51.202;8.698;2023-12-28T12:16:37;8.80;1.00
4813;DHT22;2420;51.202;8.698;2023-12-28T12:19:06;8.90;1.00
4813;DHT22;2420;51.202;8.698;2023-12-28T12:21:36;9.00;1.00
4813;DHT22;2420;51.202;8.698;2023-12-28T12:24:01;9.00;1.00
4813;DHT22;2420;51.202;8.698;2023-12-28T12:26:30;9.00;1.00
4813;DHT22;2420;51.202;8.698;2023-12-28T12:28:56;9.00;1.00
4813;DHT22;2420;51.202;8.698;2023-12-28T12:31:22;9.00;1.00
4813;DHT22;2420;51.202;8.698;2023-12-28T12:33:48;9.00;1.00
4813;DHT22;2420;51.202;8.698;2023-12-28T12:36:15;9.00;1.00
4813;DHT22;2420;51.202;8.698;2023-12-28T12:38:41;9.00;1.00
4813;DHT22;2420;51.202;8.698;2023-12-28T12:41:07;9.00;1.00
4813;DHT22;2420;51.202;8.698;2023-12-28T12:43:33;9.00;1.00
4813;DHT22;2420;51.202;8.698;2023-12-28T12:45:59;9.10;1.00
4813;DHT22;2420;51.202;8.698;2023-12-28T12:48:25;9.10;1.00
4813;DHT22;2420;51.202;8.698;2023-12-28T12:50:51;9.20;1.00
4813;DHT22;2420;51.202;8.698;2023-12-28T12:53:16;9.20;1.00
4813;DHT22;2420;51.202;8.698;2023-12-28T12:55:42;9.20;1.00
4813;DHT22;2420;51.202;8.698;2023-12-28T12:58:13;9.20;1.00
4813;DHT22;2420;51.202;8.698;2023-12-28T13:00:41;9.20;1.00
4813;DHT22;2420;51.202;8.698;2023-12-28T13:03:08;9.10;1.00
4813;DHT22;2420;51.202;8.698;2023-12-28T13:05:37;9.10;1.00
4813;DHT22;2420;51.202;8.698;2023-12-28T13:08:09;9.10;1.00
4813;DHT22;2420;51.202;8.698;2023-12-28T13:10:34;9.10;1.00
4813;DHT22;2420;51.202;8.698;2023-12-28T13:13:00;9.20;1.00
4813;DHT22;2420;51.202;8.698;2023-12-28T13:15:26;9.20;1.00
4813;DHT22;2420;51.202;8.698;2023-12-28T13:17:52;9.20;1.00
4813;DHT22;2420;51.202;8.698;2023-12-28T13:20:18;9.20;1.00
4813;DHT22;2420;51.202;8.698;2023-12-28T13:22:44;9.20;1.00
4813;DHT22;2420;51.202;8.698;2023-12-28T13:25:09;9.10;1.00
4813;DHT22;2420;51.202;8.698;2023-12-28T13:27:35;9.00;1.00
4813;DHT22;2420;51.202;8.698;2023-12-28T13:30:00;9.00;1.00
4813;DHT22;2420;51.202;8.698;2023-12-28T13:32:26;9.00;1.00
4813;DHT22;2420;51.202;8.698;2023-12-28T13:34:51;9.00;1.00
4813;DHT22;2420;51.202;8.698;2023-12-28T13:37:17;9.00;1.00
4813;DHT22;2420;51.202;8.698;2023-12-28T13:39:43;9.00;1.00
4813;DHT22;2420;51.202;8.698;2023-12-28T13:42:09;8.90;1.00
4813;DHT22;2420;51.202;8.698;2023-12-28T13:44:34;8.90;1.00
4813;DHT22;2420;51.202;8.698;2023-12-28T13:47:03;8.80;1.00
4813;DHT22;2420;51.202;8.698;2023-12-28T13:49:31;8.80;1.00
4813;DHT22;2420;51.202;8.698;2023-12-28T13:51:56;8.80;1.00
4813;DHT22;2420;51.202;8.698;2023-12-28T13:54:22;8.80;1.00
4813;DHT22;2420;51.202;8.698;2023-12-28T13:56:48;8.80;1.00
4813;DHT22;2420;51.202;8.698;2023-12-28T13:59:14;8.70;1.00
4813;DHT22;2420;51.202;8.698;2023-12-28T14:01:40;8.70;1.00
4813;DHT22;2420;51.202;8.698;2023-12-28T14:04:06;8.70;1.00
4813;DHT22;2420;51.202;8.698;2023-12-28T14:06:32;8.70;1.00
4813;DHT22;2420;51.202;8.698;2023-12-28T14:08:57;8.60;1.00
4813;DHT22;2420;51.202;8.698;2023-12-28T14:11:24;8.60;1.00
4813;DHT22;2420;51.202;8.698;2023-12-28T14:13:49;8.60;1.00
4813;DHT22;2420;51.202;8.698;2023-12-28T14:16:15;8.60;1.00
4813;DHT22;2420;51.202;8.698;2023-12-28T14:18:41;8.50;1.00
4813;DHT22;2420;51.202;8.698;2023-12-28T14:21:08;8.50;1.00
4813;DHT22;2420;51.202;8.698;2023-12-28T14:23:35;8.50;1.00
4813;DHT22;2420;51.202;8.698;2023-12-28T14:26:02;8.40;1.00
4813;DHT22;2420;51.202;8.698;2023-12-28T14:28:29;8.40;1.00
4813;DHT22;2420;51.202;8.698;2023-12-28T14:30:57;8.40;1.00
4813;DHT22;2420;51.202;8.698;2023-12-28T14:33:23;8.30;1.00
4813;DHT22;2420;51.202;8.698;2023-12-28T14:35:48;8.30;1.00
4813;DHT22;2420;51.202;8.698;2023-12-28T14:38:14;8.30;1.00
4813;DHT22;2420;51.202;8.698;2023-12-28T14:40:40;8.20;1.00
4813;DHT22;2420;51.202;8.698;2023-12-28T14:43:05;8.20;1.00
4813;DHT22;2420;51.202;8.698;2023-12-28T14:45:34;8.20;1.00
4813;DHT22;2420;51.202;8.698;2023-12-28T14:48:01;8.20;1.00
4813;DHT22;2420;51.202;8.698;2023-12-28T14:50:27;8.20;1.00
4813;DHT22;2420;51.202;8.698;2023-12-28T14:52:52;8.10;1.00
4813;DHT22;2420;51.202;8.698;2023-12-28T14:55:18;8.10;1.00
4813;DHT22;2420;51.202;8.698;2023-12-28T14:57:43;8.10;1.00
4813;DHT22;2420;51.202;8.698;2023-12-28T15:00:10;8.10;1.00
4813;DHT22;2420;51.202;8.698;2023-12-28T15:02:36;8.00;1.00
4813;DHT22;2420;51.202;8.698;2023-12-28T15:05:01;8.00;1.00
4813;DHT22;2420;51.202;8.698;2023-12-28T15:07:27;8.00;1.00
4813;DHT22;2420;51.202;8.698;2023-12-28T15:09:53;8.00;1.00
4813;DHT22;2420;51.202;8.698;2023-12-28T15:12:22;8.00;1.00
4813;DHT22;2420;51.202;8.698;2023-12-28T15:14:48;7.90;1.00
4813;DHT22;2420;51.202;8.698;2023-12-28T15:17:13;7.90;1.00
4813;DHT22;2420;51.202;8.698;2023-12-28T15:19:39;7.90;1.00
4813;DHT22;2420;51.202;8.698;2023-12-28T15:22:05;7.90;1.00
4813;DHT22;2420;51.202;8.698;2023-12-28T15:24:31;7.80;1.00
4813;DHT22;2420;51.202;8.698;2023-12-28T15:26:56;7.80;1.00
4813;DHT22;2420;51.202;8.698;2023-12-28T15:29:22;7.70;1.00
4813;DHT22;2420;51.202;8.698;2023-12-28T15:31:48;7.70;1.00
4813;DHT22;2420;51.202;8.698;2023-12-28T15:34:13;7.70;1.00
4813;DHT22;2420;51.202;8.698;2023-12-28T15:36:39;7.70;1.00
4813;DHT22;2420;51.202;8.698;2023-12-28T15:39:05;7.70;1.00
4813;DHT22;2420;51.202;8.698;2023-12-28T15:41:31;7.70;1.00
4813;DHT22;2420;51.202;8.698;2023-12-28T15:43:57;7.60;1.00
4813;DHT22;2420;51.202;8.698;2023-12-28T15:46:22;7.60;1.00
4813;DHT22;2420;51.202;8.698;2023-12-28T15:48:48;7.60;1.00
4813;DHT22;2420;51.202;8.698;2023-12-28T15:51:13;7.60;1.00
4813;DHT22;2420;51.202;8.698;2023-12-28T15:53:39;7.60;1.00
4813;DHT22;2420;51.202;8.698;2023-12-28T15:56:05;7.60;1.00
4813;DHT22;2420;51.202;8.698;2023-12-28T15:58:34;7.50;1.00
4813;DHT22;2420;51.202;8.698;2023-12-28T16:00:59;7.50;1.00
4813;DHT22;2420;51.202;8.698;2023-12-28T16:03:25;7.50;1.00
4813;DHT22;2420;51.202;8.698;2023-12-28T16:05:50;7.50;1.00
4813;DHT22;2420;51.202;8.698;2023-12-28T16:08:16;7.40;1.00
4813;DHT22;2420;51.202;8.698;2023-12-28T16:10:41;7.50;1.00
4813;DHT22;2420;51.202;8.698;2023-12-28T16:13:07;7.50;1.00
4813;DHT22;2420;51.202;8.698;2023-12-28T16:15:32;7.40;1.00
4813;DHT22;2420;51.202;8.698;2023-12-28T16:18:02;7.40;1.00
4813;DHT22;2420;51.202;8.698;2023-12-28T16:20:28;7.40;1.00
4813;DHT22;2420;51.202;8.698;2023-12-28T16:22:54;7.40;1.00
4813;DHT22;2420;51.202;8.698;2023-12-28T16:25:21;7.30;1.00
4813;DHT22;2420;51.202;8.698;2023-12-28T16:27:47;7.30;1.00